createdAt,value
2019-05-07T00:03:38.867Z,0.00
2019-05-07T00:18:39.032Z,0.00
2019-05-07T00:33:39.238Z,0.00
2019-05-07T00:48:41.709Z,0.00
2019-05-07T01:03:42.503Z,0.00
2019-05-07T01:18:43.328Z,0.00
2019-05-07T01:33:43.527Z,0.00
2019-05-07T01:48:43.753Z,0.00
2019-05-07T02:03:43.929Z,0.00
2019-05-07T02:18:44.161Z,0.00
2019-05-07T02:33:44.366Z,0.00
2019-05-07T02:48:44.545Z,0.00
2019-05-07T03:03:45.091Z,0.00
2019-05-07T03:18:44.873Z,0.00
2019-05-07T03:33:46.979Z,11.25
2019-05-07T03:48:48.278Z,45.00
2019-05-07T04:03:48.466Z,84.38
2019-05-07T04:18:48.663Z,146.25
2019-05-07T04:33:48.981Z,163.12
2019-05-07T04:48:49.089Z,213.75
2019-05-07T05:03:49.272Z,202.50
2019-05-07T05:18:51.621Z,360.00
2019-05-07T05:33:52.736Z,399.38
2019-05-07T05:48:53.498Z,292.50
2019-05-07T06:03:53.702Z,455.62
2019-05-07T06:18:54.355Z,489.38
2019-05-07T06:33:54.523Z,736.88
2019-05-07T06:48:54.771Z,382.50
2019-05-07T07:03:54.849Z,551.25
2019-05-07T07:18:55.894Z,461.25
2019-05-07T07:33:56.374Z,427.50
2019-05-07T07:49:09.924Z,2013.75
2019-05-07T08:04:02.983Z,2295.00
2019-05-07T08:19:17.568Z,2581.88
2019-05-07T08:34:08.608Z,2666.25
2019-05-07T08:49:08.882Z,2615.62
2019-05-07T09:04:09.070Z,2818.12
2019-05-07T09:19:09.251Z,3487.50
2019-05-07T09:34:09.335Z,1366.88
2019-05-07T09:49:09.581Z,3791.25
2019-05-07T10:04:09.812Z,4061.25
2019-05-07T10:19:09.980Z,703.12
2019-05-07T10:34:12.221Z,4111.88
2019-05-07T10:49:12.430Z,675.00
2019-05-07T11:04:12.874Z,630.00
2019-05-07T11:19:12.890Z,4151.25
2019-05-07T11:34:13.881Z,1271.25
2019-05-07T11:49:14.004Z,798.75
2019-05-07T12:04:14.212Z,3960.00
2019-05-07T12:19:16.570Z,1265.62
2019-05-07T12:34:16.459Z,596.25
2019-05-07T12:49:16.797Z,3633.75
2019-05-07T13:04:16.974Z,3498.75
2019-05-07T13:19:17.212Z,849.38
2019-05-07T13:34:17.507Z,3133.12
2019-05-07T13:49:17.637Z,2739.38
2019-05-07T14:04:17.832Z,2553.75
2019-05-07T14:19:17.921Z,2115.00
2019-05-07T14:34:18.239Z,1957.50
2019-05-07T14:49:18.351Z,641.25
2019-05-07T15:04:18.543Z,489.38
2019-05-07T15:19:18.762Z,376.88
2019-05-07T15:34:18.889Z,883.12
2019-05-07T15:49:21.539Z,365.62
2019-05-07T16:04:23.206Z,258.75
2019-05-07T16:19:25.888Z,298.12
2019-05-07T16:34:25.968Z,281.25
2019-05-07T16:49:26.077Z,213.75
2019-05-07T17:04:26.223Z,196.88
2019-05-07T17:19:26.447Z,151.88
2019-05-07T17:34:26.603Z,118.12
2019-05-07T17:49:26.707Z,90.00
2019-05-07T18:04:26.849Z,67.50
2019-05-07T18:19:27.069Z,45.00
2019-05-07T18:34:27.274Z,22.50
2019-05-07T18:49:27.483Z,5.62
2019-05-07T19:04:30.123Z,0.00
2019-05-07T19:19:32.802Z,0.00
2019-05-07T19:34:33.016Z,0.00
2019-05-07T19:49:33.216Z,0.00
2019-05-07T20:04:35.116Z,0.00
2019-05-07T20:19:35.583Z,0.00
2019-05-07T20:34:35.894Z,0.00
2019-05-07T20:49:36.112Z,0.00
2019-05-07T21:04:36.428Z,0.00
2019-05-07T21:19:36.740Z,0.00
2019-05-07T21:34:37.014Z,0.00
2019-05-07T21:49:37.127Z,0.00
2019-05-07T22:04:37.437Z,0.00
2019-05-07T22:19:37.508Z,0.00
2019-05-07T22:34:37.797Z,0.00
2019-05-07T22:49:38.061Z,0.00
2019-05-07T23:04:38.364Z,0.00
2019-05-07T23:19:38.491Z,0.00
2019-05-07T23:34:38.666Z,0.00
2019-05-07T23:49:38.812Z,0.00
